createdAt,value
2019-04-01T00:01:45.780Z,65.40
2019-04-01T00:04:12.631Z,65.70
2019-04-01T00:06:38.978Z,66.60
2019-04-01T00:09:05.547Z,67.30
2019-04-01T00:11:31.908Z,67.70
2019-04-01T00:13:58.377Z,68.10
2019-04-01T00:16:24.928Z,67.70
2019-04-01T00:19:02.407Z,67.10
2019-04-01T00:21:19.998Z,68.30
2019-04-01T00:23:46.575Z,67.70
2019-04-01T00:26:12.939Z,66.70
2019-04-01T00:28:39.730Z,66.30
2019-04-01T00:31:06.470Z,67.10
2019-04-01T00:33:33.312Z,66.30
2019-04-01T00:36:00.069Z,67.60
2019-04-01T00:38:26.520Z,67.00
2019-04-01T00:40:52.987Z,66.30
2019-04-01T00:43:21.338Z,67.80
2019-04-01T00:45:49.702Z,67.80
2019-04-01T00:48:16.528Z,66.80
2019-04-01T00:50:43.003Z,67.00
2019-04-01T00:53:09.448Z,67.30
2019-04-01T00:55:36.142Z,67.90
2019-04-01T00:58:02.671Z,68.10
2019-04-01T01:00:29.613Z,69.50
2019-04-01T01:02:56.246Z,69.20
2019-04-01T01:05:23.006Z,69.80
2019-04-01T01:07:49.499Z,69.80
2019-04-01T01:10:16.122Z,69.50
2019-04-01T01:12:42.499Z,69.90
2019-04-01T01:15:09.544Z,68.60
2019-04-01T01:17:36.007Z,69.80
2019-04-01T01:20:04.663Z,69.00
2019-04-01T01:22:31.143Z,69.80
2019-04-01T01:24:57.576Z,69.60
2019-04-01T01:27:24.043Z,70.40
2019-04-01T01:29:50.504Z,70.70
2019-04-01T01:32:16.947Z,71.40
2019-04-01T01:34:43.427Z,71.60
2019-04-01T01:37:09.980Z,72.60
2019-04-01T01:39:36.552Z,73.40
2019-04-01T01:42:03.096Z,73.60
2019-04-01T01:44:29.923Z,73.60
2019-04-01T01:46:56.371Z,73.90
2019-04-01T01:49:22.856Z,74.30
2019-04-01T01:51:49.336Z,75.10
2019-04-01T01:54:15.781Z,75.50
2019-04-01T01:56:42.222Z,75.40
2019-04-01T01:59:08.591Z,77.00
2019-04-01T02:01:35.368Z,77.10
2019-04-01T02:04:01.843Z,77.80
2019-04-01T02:06:29.217Z,77.90
2019-04-01T02:08:55.895Z,76.60
2019-04-01T02:11:22.434Z,77.30
2019-04-01T02:13:49.171Z,78.90
2019-04-01T02:16:15.661Z,79.80
2019-04-01T02:18:42.124Z,79.00
2019-04-01T02:21:08.587Z,79.40
2019-04-01T02:23:35.315Z,80.50
2019-04-01T02:26:01.804Z,81.30
2019-04-01T02:28:28.238Z,80.50
2019-04-01T02:30:54.621Z,81.70
2019-04-01T02:33:21.051Z,81.30
2019-04-01T02:35:47.789Z,81.00
2019-04-01T02:38:14.333Z,81.70
2019-04-01T02:40:40.897Z,82.00
2019-04-01T02:43:07.352Z,81.60
2019-04-01T02:45:33.815Z,81.70
2019-04-01T02:48:00.406Z,81.20
2019-04-01T02:50:26.984Z,82.40
2019-04-01T02:52:53.749Z,83.50
2019-04-01T02:55:20.201Z,82.20
2019-04-01T02:57:46.669Z,82.40
2019-04-01T03:00:13.716Z,84.50
2019-04-01T03:02:40.381Z,83.50
2019-04-01T03:05:07.031Z,86.20
2019-04-01T03:07:33.629Z,85.50
2019-04-01T03:10:00.174Z,85.80
2019-04-01T03:12:27.141Z,86.50
2019-04-01T03:14:53.679Z,86.10
2019-04-01T03:17:20.251Z,85.20
2019-04-01T03:19:46.711Z,86.50
2019-04-01T03:22:13.365Z,86.20
2019-04-01T03:24:39.944Z,86.10
2019-04-01T03:27:06.482Z,86.80
2019-04-01T03:29:33.426Z,87.40
2019-04-01T03:32:00.107Z,88.30
2019-04-01T03:34:26.557Z,89.70
2019-04-01T03:37:13.065Z,87.20
2019-04-01T03:39:39.553Z,87.40
2019-04-01T03:42:05.984Z,89.40
2019-04-01T03:44:32.449Z,87.10
2019-04-01T03:46:58.888Z,87.40
2019-04-01T03:49:25.498Z,88.10
2019-04-01T03:51:52.145Z,87.40
2019-04-01T03:54:18.824Z,89.80
2019-04-01T03:56:45.271Z,89.70
2019-04-01T03:59:11.753Z,90.00
2019-04-01T04:01:38.314Z,89.60
2019-04-01T04:04:04.880Z,89.20
2019-04-01T04:06:31.433Z,90.60
2019-04-01T04:09:01.637Z,90.50
2019-04-01T04:11:26.147Z,88.90
2019-04-01T04:13:52.592Z,90.70
2019-04-01T04:16:19.419Z,91.00
2019-04-01T04:18:45.963Z,90.00
2019-04-01T04:21:12.335Z,91.20
2019-04-01T04:23:38.883Z,91.50
2019-04-01T04:26:05.756Z,91.60
2019-04-01T04:28:32.199Z,92.10
2019-04-01T04:30:58.689Z,92.80
2019-04-01T04:33:25.621Z,92.80
2019-04-01T04:35:52.304Z,92.80
2019-04-01T04:38:18.942Z,91.70
2019-04-01T04:40:45.420Z,92.60
2019-04-01T04:43:12.235Z,92.30
2019-04-01T04:45:38.618Z,92.70
2019-04-01T04:48:05.180Z,93.00
2019-04-01T04:50:32.048Z,92.80
2019-04-01T04:52:58.514Z,93.10
2019-04-01T04:55:24.977Z,92.60
2019-04-01T04:57:51.535Z,93.30
2019-04-01T05:00:18.088Z,92.50
2019-04-01T05:02:44.764Z,93.70
2019-04-01T05:05:11.317Z,93.40
2019-04-01T05:07:37.800Z,93.90
2019-04-01T05:10:06.641Z,93.60
2019-04-01T05:12:33.525Z,93.80
2019-04-01T05:15:00.377Z,94.00
2019-04-01T05:17:27.150Z,94.00
2019-04-01T05:19:53.509Z,93.80
2019-04-01T05:22:20.685Z,94.20
2019-04-01T05:24:48.047Z,94.20
2019-04-01T05:27:18.324Z,94.20
2019-04-01T05:29:47.167Z,94.60
2019-04-01T05:32:15.012Z,94.50
2019-04-01T05:34:44.013Z,94.50
2019-04-01T05:37:10.568Z,94.50
2019-04-01T05:39:37.611Z,94.70
2019-04-01T05:42:04.065Z,95.00
2019-04-01T05:44:30.636Z,95.20
2019-04-01T05:46:57.302Z,95.00
2019-04-01T05:49:23.879Z,95.60
2019-04-01T05:51:50.647Z,94.50
2019-04-01T05:54:17.648Z,93.90
2019-04-01T05:56:44.304Z,94.80
2019-04-01T05:59:11.064Z,95.00
2019-04-01T06:01:42.141Z,95.00
2019-04-01T06:04:08.713Z,95.00
2019-04-01T06:06:36.048Z,96.30
2019-04-01T06:09:05.524Z,95.30
2019-04-01T06:11:32.284Z,93.50
2019-04-01T06:13:59.357Z,93.00
2019-04-01T06:16:26.213Z,92.10
2019-04-01T06:18:52.751Z,90.80
2019-04-01T06:21:19.819Z,89.20
2019-04-01T06:23:46.351Z,90.60
2019-04-01T06:26:12.833Z,88.70
2019-04-01T06:28:39.384Z,88.40
2019-04-01T06:31:05.959Z,86.60
2019-04-01T06:33:32.400Z,82.80
2019-04-01T06:35:59.308Z,84.70
2019-04-01T06:38:26.150Z,81.80
2019-04-01T06:40:52.715Z,82.50
2019-04-01T06:43:19.261Z,82.10
2019-04-01T06:45:45.852Z,82.70
2019-04-01T06:48:12.530Z,82.20
2019-04-01T06:50:39.252Z,79.70
2019-04-01T06:53:08.004Z,81.40
2019-04-01T06:55:34.508Z,80.40
2019-04-01T06:58:01.380Z,77.80
2019-04-01T07:00:29.741Z,70.60
2019-04-01T07:02:56.975Z,68.90
2019-04-01T07:05:23.523Z,69.60
2019-04-01T07:07:50.148Z,67.70
2019-04-01T07:10:16.813Z,65.60
2019-04-01T07:12:43.476Z,64.60
2019-04-01T07:15:10.567Z,65.00
2019-04-01T07:17:37.323Z,63.30
2019-04-01T07:20:04.600Z,63.00
2019-04-01T07:22:31.261Z,62.50
2019-04-01T07:24:57.957Z,60.70
2019-04-01T07:27:24.676Z,59.70
2019-04-01T07:29:51.456Z,59.20
2019-04-01T07:32:17.914Z,56.70
2019-04-01T07:34:44.723Z,56.50
2019-04-01T07:37:11.917Z,55.10
2019-04-01T07:39:38.673Z,53.70
2019-04-01T07:42:05.232Z,53.70
2019-04-01T07:44:31.891Z,54.50
2019-04-01T07:46:58.353Z,54.30
2019-04-01T07:49:25.382Z,53.10
2019-04-01T07:51:52.161Z,52.50
2019-04-01T07:54:19.110Z,51.50
2019-04-01T07:56:45.761Z,50.40
2019-04-01T07:59:13.106Z,50.80
2019-04-01T08:01:39.674Z,47.50
2019-04-01T08:04:06.484Z,48.20
2019-04-01T08:06:33.184Z,46.80
2019-04-01T08:09:00.261Z,45.30
2019-04-01T08:11:26.823Z,43.50
2019-04-01T08:13:53.478Z,42.10
2019-04-01T08:16:20.165Z,40.70
2019-04-01T08:18:47.125Z,40.20
2019-04-01T08:21:13.909Z,37.90
2019-04-01T08:23:43.605Z,38.30
2019-04-01T08:26:10.348Z,37.00
2019-04-01T08:28:37.036Z,36.80
2019-04-01T08:31:03.714Z,35.70
2019-04-01T08:33:30.280Z,36.00
2019-04-01T08:35:56.832Z,32.90
2019-04-01T08:38:25.504Z,29.70
2019-04-01T08:40:52.056Z,28.70
2019-04-01T08:43:19.039Z,27.70
2019-04-01T08:45:45.794Z,24.60
2019-04-01T08:48:12.493Z,23.10
2019-04-01T08:50:39.061Z,21.20
2019-04-01T08:53:05.837Z,18.30
2019-04-01T08:55:32.379Z,18.30
2019-04-01T08:57:59.362Z,22.00
2019-04-01T09:00:26.141Z,22.50
2019-04-01T09:02:55.664Z,20.60
2019-04-01T09:05:22.247Z,19.60
2019-04-01T09:07:49.085Z,18.50
2019-04-01T09:10:15.757Z,18.40
2019-04-01T09:12:42.612Z,18.40
2019-04-01T09:15:09.899Z,19.30
2019-04-01T09:17:39.932Z,21.80
2019-04-01T09:20:05.146Z,21.60
2019-04-01T09:22:31.704Z,20.30
2019-04-01T09:24:58.190Z,17.00
2019-04-01T09:27:24.640Z,14.90
2019-04-01T09:29:51.212Z,12.20
2019-04-01T09:32:17.833Z,13.10
2019-04-01T09:34:44.460Z,16.40
2019-04-01T09:37:11.046Z,16.80
2019-04-01T09:39:37.547Z,16.50
2019-04-01T09:42:04.099Z,16.20
2019-04-01T09:44:36.900Z,16.00
2019-04-01T09:46:59.072Z,15.30
2019-04-01T09:49:25.507Z,13.20
2019-04-01T09:51:52.100Z,14.80
2019-04-01T09:54:19.055Z,12.80
2019-04-01T09:56:45.526Z,13.60
2019-04-01T09:59:12.112Z,11.50
2019-04-01T10:01:38.781Z,11.60
2019-04-01T10:04:05.440Z,13.90
2019-04-01T10:06:31.925Z,13.70
2019-04-01T10:08:58.356Z,15.50
2019-04-01T10:11:25.295Z,15.70
2019-04-01T10:13:51.761Z,17.40
2019-04-01T10:16:18.208Z,19.00
2019-04-01T10:18:44.675Z,20.00
2019-04-01T10:21:11.241Z,18.70
2019-04-01T10:23:37.715Z,16.80
2019-04-01T10:26:04.677Z,16.40
2019-04-01T10:28:32.293Z,17.10
2019-04-01T10:30:59.266Z,16.40
2019-04-01T10:33:26.166Z,16.20
2019-04-01T10:35:52.714Z,16.30
2019-04-01T10:38:19.304Z,15.80
2019-04-01T10:40:46.182Z,15.20
2019-04-01T10:43:12.852Z,15.70
2019-04-01T10:45:39.766Z,15.00
2019-04-01T10:48:06.381Z,12.20
2019-04-01T10:50:33.528Z,13.10
2019-04-01T10:52:59.918Z,14.90
2019-04-01T10:55:26.844Z,16.70
2019-04-01T10:57:54.125Z,15.30
2019-04-01T11:00:21.398Z,14.50
2019-04-01T11:02:50.098Z,14.50
2019-04-01T11:05:16.233Z,17.00
2019-04-01T11:07:42.791Z,16.00
2019-04-01T11:10:11.659Z,15.50
2019-04-01T11:12:38.621Z,13.70
2019-04-01T11:15:05.932Z,13.50
2019-04-01T11:17:32.562Z,14.10
2019-04-01T11:19:59.137Z,13.50
2019-04-01T11:22:25.688Z,11.80
2019-04-01T11:24:52.859Z,10.70
2019-04-01T11:27:19.221Z,11.80
2019-04-01T11:29:45.816Z,11.20
2019-04-01T11:32:13.590Z,13.00
2019-04-01T11:34:40.456Z,12.10
2019-04-01T11:37:06.910Z,13.60
2019-04-01T11:39:33.706Z,11.90
2019-04-01T11:42:01.531Z,12.90
2019-04-01T11:44:28.580Z,11.50
2019-04-01T11:46:55.003Z,11.50
2019-04-01T11:49:21.697Z,12.10
2019-04-01T11:51:48.263Z,12.30
2019-04-01T11:54:15.192Z,11.70
2019-04-01T11:56:41.870Z,10.40
2019-04-01T11:59:08.721Z,10.00
2019-04-01T12:01:36.853Z,9.40
2019-04-01T12:04:03.452Z,9.50
2019-04-01T12:06:30.029Z,11.20
2019-04-01T12:08:56.635Z,8.80
2019-04-01T12:11:23.081Z,9.70
2019-04-01T12:13:49.554Z,9.40
2019-04-01T12:16:16.540Z,9.50
2019-04-01T12:18:44.589Z,9.80
2019-04-01T12:21:11.341Z,10.20
2019-04-01T12:23:37.916Z,11.60
2019-04-01T12:26:14.996Z,10.70
2019-04-01T12:28:36.348Z,11.60
2019-04-01T12:31:01.596Z,12.90
2019-04-01T12:33:28.063Z,12.60
2019-04-01T12:35:54.521Z,11.00
2019-04-01T12:38:21.080Z,9.80
2019-04-01T12:40:47.617Z,9.90
2019-04-01T12:43:15.179Z,11.40
2019-04-01T12:45:41.860Z,10.60
2019-04-01T12:48:08.404Z,11.90
2019-04-01T12:50:34.996Z,12.60
2019-04-01T12:53:01.544Z,8.90
2019-04-01T12:55:28.216Z,8.60
2019-04-01T12:57:54.668Z,10.40
2019-04-01T13:00:22.371Z,10.30
2019-04-01T13:02:49.616Z,11.30
2019-04-01T13:05:16.284Z,10.60
2019-04-01T13:07:43.042Z,10.80
2019-04-01T13:10:10.364Z,12.70
2019-04-01T13:12:36.810Z,12.20
2019-04-01T13:15:03.888Z,11.50
2019-04-01T13:17:30.430Z,11.90
2019-04-01T13:19:57.336Z,12.60
2019-04-01T13:22:23.913Z,11.50
2019-04-01T13:24:50.560Z,11.40
2019-04-01T13:27:17.153Z,11.70
2019-04-01T13:29:43.889Z,11.80
2019-04-01T13:32:10.360Z,11.30
2019-04-01T13:34:36.798Z,12.80
2019-04-01T13:37:03.279Z,14.20
2019-04-01T13:39:30.028Z,13.90
2019-04-01T13:41:56.518Z,13.50
2019-04-01T13:44:36.288Z,12.70
2019-04-01T13:46:51.438Z,12.20
2019-04-01T13:49:17.894Z,11.70
2019-04-01T13:51:44.572Z,13.20
2019-04-01T13:54:11.896Z,13.10
2019-04-01T13:56:38.442Z,13.70
2019-04-01T13:59:04.905Z,14.60
2019-04-01T14:01:31.315Z,15.00
2019-04-01T14:03:58.453Z,14.60
2019-04-01T14:06:25.224Z,14.10
2019-04-01T14:08:51.810Z,13.20
2019-04-01T14:11:18.252Z,12.70
2019-04-01T14:13:44.829Z,13.70
2019-04-01T14:16:11.277Z,12.70
2019-04-01T14:18:38.082Z,12.50
2019-04-01T14:21:16.259Z,13.10
2019-04-01T14:23:33.107Z,14.10
2019-04-01T14:25:59.848Z,15.50
2019-04-01T14:28:26.423Z,15.70
2019-04-01T14:30:52.815Z,15.80
2019-04-01T14:33:19.274Z,14.90
2019-04-01T14:35:45.754Z,14.10
2019-04-01T14:38:12.297Z,14.00
2019-04-01T14:40:38.969Z,14.30
2019-04-01T14:43:05.540Z,14.20
2019-04-01T14:45:32.034Z,13.70
2019-04-01T14:47:58.480Z,13.80
2019-04-01T14:50:24.955Z,12.10
2019-04-01T14:52:51.509Z,11.90
2019-04-01T14:55:17.980Z,13.40
2019-04-01T14:57:44.424Z,13.30
2019-04-01T15:00:12.550Z,13.50
2019-04-01T15:02:39.624Z,14.80
2019-04-01T15:05:06.301Z,15.50
2019-04-01T15:07:33.208Z,15.80
2019-04-01T15:09:59.678Z,15.70
2019-04-01T15:12:26.354Z,15.80
2019-04-01T15:14:52.816Z,16.20
2019-04-01T15:17:19.296Z,17.40
2019-04-01T15:19:48.410Z,17.40
2019-04-01T15:22:14.365Z,18.20
2019-04-01T15:24:40.824Z,18.70
2019-04-01T15:27:07.280Z,18.60
2019-04-01T15:29:33.743Z,18.40
2019-04-01T15:32:00.312Z,18.50
2019-04-01T15:34:26.865Z,18.80
2019-04-01T15:36:54.261Z,17.90
2019-04-01T15:39:21.628Z,17.70
2019-04-01T15:41:48.216Z,18.30
2019-04-01T15:44:14.659Z,17.80
2019-04-01T15:46:41.041Z,17.00
2019-04-01T15:49:11.118Z,18.40
2019-04-01T15:51:36.103Z,18.70
2019-04-01T15:54:04.433Z,18.10
2019-04-01T15:56:30.958Z,17.50
2019-04-01T15:58:57.439Z,18.20
2019-04-01T16:01:24.186Z,19.60
2019-04-01T16:03:50.730Z,20.10
2019-04-01T16:06:17.223Z,20.50
2019-04-01T16:08:43.783Z,20.00
2019-04-01T16:11:10.336Z,19.00
2019-04-01T16:13:36.918Z,19.00
2019-04-01T16:16:03.456Z,19.60
2019-04-01T16:18:30.992Z,20.20
2019-04-01T16:20:59.400Z,20.70
2019-04-01T16:23:25.940Z,20.40
2019-04-01T16:25:52.803Z,20.80
2019-04-01T16:28:19.384Z,20.70
2019-04-01T16:30:46.027Z,20.80
2019-04-01T16:33:12.408Z,20.80
2019-04-01T16:35:38.967Z,20.50
2019-04-01T16:38:05.893Z,20.50
2019-04-01T16:40:32.469Z,19.70
2019-04-01T16:42:59.043Z,19.30
2019-04-01T16:45:25.712Z,19.10
2019-04-01T16:47:52.061Z,19.10
2019-04-01T16:50:18.725Z,19.20
2019-04-01T16:52:45.619Z,19.30
2019-04-01T16:55:13.688Z,19.50
2019-04-01T16:57:40.257Z,20.20
2019-04-01T17:00:08.806Z,19.70
2019-04-01T17:02:35.457Z,19.30
2019-04-01T17:05:02.428Z,20.20
2019-04-01T17:07:28.978Z,20.20
2019-04-01T17:09:58.083Z,20.30
2019-04-01T17:12:23.996Z,20.20
2019-04-01T17:14:50.479Z,20.40
2019-04-01T17:17:17.032Z,21.00
2019-04-01T17:19:43.571Z,21.00
2019-04-01T17:22:11.616Z,21.80
2019-04-01T17:24:38.467Z,22.10
2019-04-01T17:27:12.143Z,21.60
2019-04-01T17:29:41.103Z,22.50
2019-04-01T17:32:08.071Z,22.50
2019-04-01T17:34:34.628Z,22.40
2019-04-01T17:37:01.353Z,22.60
2019-04-01T17:39:27.780Z,22.40
2019-04-01T17:41:54.285Z,22.50
2019-04-01T17:44:20.827Z,22.10
2019-04-01T17:46:47.240Z,22.70
2019-04-01T17:49:13.794Z,22.40
2019-04-01T17:51:40.275Z,22.70
2019-04-01T17:54:06.720Z,23.40
2019-04-01T17:56:33.264Z,24.20
2019-04-01T17:59:01.517Z,24.50
2019-04-01T18:01:28.078Z,24.80
2019-04-01T18:03:54.660Z,25.80
2019-04-01T18:06:21.112Z,24.80
2019-04-01T18:08:47.621Z,25.70
2019-04-01T18:11:15.993Z,25.70
2019-04-01T18:13:42.675Z,25.30
2019-04-01T18:16:09.243Z,25.90
2019-04-01T18:18:35.819Z,25.60
2019-04-01T18:21:03.442Z,25.60
2019-04-01T18:23:30.258Z,26.50
2019-04-01T18:25:56.830Z,27.40
2019-04-01T18:28:23.313Z,27.30
2019-04-01T18:30:49.863Z,27.40
2019-04-01T18:33:19.570Z,27.60
2019-04-01T18:35:45.012Z,28.50
2019-04-01T18:38:11.553Z,27.80
2019-04-01T18:40:38.064Z,28.10
2019-04-01T18:43:04.626Z,27.60
2019-04-01T18:45:31.191Z,27.90
2019-04-01T18:47:57.744Z,27.90
2019-04-01T18:50:24.734Z,28.00
2019-04-01T18:52:51.428Z,28.40
2019-04-01T18:55:17.912Z,28.60
2019-04-01T18:57:44.359Z,28.60
2019-04-01T19:00:11.239Z,28.40
2019-04-01T19:02:38.028Z,28.20
2019-04-01T19:05:04.802Z,29.10
2019-04-01T19:07:31.175Z,29.50
2019-04-01T19:10:06.158Z,29.40
2019-04-01T19:12:26.104Z,30.80
2019-04-01T19:14:52.555Z,29.90
2019-04-01T19:17:19.232Z,29.80
2019-04-01T19:19:48.507Z,30.40
2019-04-01T19:22:14.314Z,31.00
2019-04-01T19:24:40.859Z,30.70
2019-04-01T19:27:07.227Z,30.70
2019-04-01T19:29:33.585Z,30.60
2019-04-01T19:31:59.955Z,29.60
2019-04-01T19:34:26.415Z,30.30
2019-04-01T19:36:53.021Z,30.70
2019-04-01T19:39:19.715Z,30.00
2019-04-01T19:41:46.274Z,30.10
2019-04-01T19:44:13.312Z,30.40
2019-04-01T19:46:40.806Z,30.70
2019-04-01T19:49:07.378Z,30.60
2019-04-01T19:51:36.035Z,30.70
2019-04-01T19:54:02.408Z,30.50
2019-04-01T19:56:29.060Z,31.60
2019-04-01T19:58:55.543Z,31.30
2019-04-01T20:01:24.737Z,30.70
2019-04-01T20:03:50.570Z,30.80
2019-04-01T20:06:18.370Z,32.40
2019-04-01T20:08:45.925Z,32.30
2019-04-01T20:11:12.956Z,32.00
2019-04-01T20:13:42.665Z,32.70
2019-04-01T20:16:10.154Z,34.20
2019-04-01T20:18:36.244Z,33.40
2019-04-01T20:21:03.254Z,33.10
2019-04-01T20:23:29.808Z,34.40
2019-04-01T20:25:56.287Z,34.00
2019-04-01T20:28:22.742Z,34.40
2019-04-01T20:30:49.324Z,34.50
2019-04-01T20:33:17.849Z,34.80
2019-04-01T20:35:44.059Z,35.70
2019-04-01T20:38:10.432Z,36.20
2019-04-01T20:40:37.004Z,36.10
2019-04-01T20:43:03.756Z,37.50
2019-04-01T20:45:30.222Z,36.70
2019-04-01T20:47:56.703Z,36.20
2019-04-01T20:50:23.834Z,38.30
2019-04-01T20:52:50.692Z,37.60
2019-04-01T20:55:17.348Z,38.20
2019-04-01T20:57:43.728Z,39.30
2019-04-01T21:00:10.941Z,38.60
2019-04-01T21:02:37.325Z,39.50
2019-04-01T21:05:06.180Z,39.00
2019-04-01T21:07:32.663Z,38.80
2019-04-01T21:09:59.215Z,38.50
2019-04-01T21:12:25.679Z,38.60
2019-04-01T21:14:52.141Z,38.60
2019-04-01T21:17:18.712Z,39.20
2019-04-01T21:19:45.304Z,39.50
2019-04-01T21:22:11.735Z,40.40
2019-04-01T21:24:38.186Z,39.20
2019-04-01T21:27:04.768Z,41.10
2019-04-01T21:29:31.316Z,40.30
2019-04-01T21:31:57.887Z,39.10
2019-04-01T21:34:24.871Z,39.10
2019-04-01T21:36:51.431Z,41.00
2019-04-01T21:39:17.905Z,40.50
2019-04-01T21:41:44.347Z,40.00
2019-04-01T21:44:11.026Z,40.80
2019-04-01T21:46:37.683Z,40.10
2019-04-01T21:49:04.168Z,41.40
2019-04-01T21:51:31.032Z,40.80
2019-04-01T21:53:57.635Z,40.80
2019-04-01T21:56:24.174Z,41.20
2019-04-01T21:58:50.660Z,42.00
2019-04-01T22:01:17.337Z,42.10
2019-04-01T22:03:43.811Z,43.00
2019-04-01T22:06:11.857Z,43.40
2019-04-01T22:08:38.824Z,43.10
2019-04-01T22:11:05.667Z,43.30
2019-04-01T22:13:32.220Z,44.90
2019-04-01T22:15:59.151Z,44.60
2019-04-01T22:18:25.619Z,45.70
2019-04-01T22:20:52.355Z,44.50
2019-04-01T22:23:18.932Z,45.60
2019-04-01T22:25:45.604Z,46.50
2019-04-01T22:28:12.169Z,47.60
2019-04-01T22:30:38.648Z,46.70
2019-04-01T22:33:05.219Z,47.80
2019-04-01T22:35:38.545Z,48.30
2019-04-01T22:38:00.298Z,48.70
2019-04-01T22:40:27.194Z,49.70
2019-04-01T22:42:53.736Z,50.60
2019-04-01T22:45:20.655Z,50.40
2019-04-01T22:47:47.685Z,51.80
2019-04-01T22:50:14.557Z,51.10
2019-04-01T22:52:42.297Z,51.40
2019-04-01T22:55:09.459Z,50.20
2019-04-01T22:57:35.948Z,51.00
2019-04-01T23:00:04.013Z,50.90
2019-04-01T23:02:30.400Z,51.80
2019-04-01T23:04:56.884Z,52.70
2019-04-01T23:07:23.343Z,52.20
2019-04-01T23:09:50.009Z,51.70
2019-04-01T23:12:16.796Z,52.40
2019-04-01T23:14:44.161Z,51.70
2019-04-01T23:17:10.944Z,52.20
2019-04-01T23:19:37.416Z,51.70
2019-04-01T23:22:04.101Z,52.30
2019-04-01T23:24:30.661Z,53.00
2019-04-01T23:26:57.228Z,53.40
2019-04-01T23:29:24.133Z,53.10
2019-04-01T23:31:51.184Z,52.80
2019-04-01T23:34:17.768Z,51.50
2019-04-01T23:36:44.560Z,53.00
2019-04-01T23:39:11.140Z,53.00
2019-04-01T23:41:37.588Z,52.70
2019-04-01T23:44:04.072Z,53.30
2019-04-01T23:46:31.010Z,52.90
2019-04-01T23:48:57.486Z,52.60
2019-04-01T23:51:24.293Z,52.70
2019-04-01T23:53:50.772Z,52.70
2019-04-01T23:56:17.140Z,53.60
2019-04-01T23:58:43.627Z,54.50
